createdAt,value
2018-12-08T00:01:35.165Z,16.70
2018-12-08T00:04:05.991Z,16.97
2018-12-08T00:06:36.647Z,17.13
2018-12-08T00:09:08.553Z,16.97
2018-12-08T00:11:39.264Z,17.73
2018-12-08T00:14:09.958Z,16.00
2018-12-08T00:16:40.658Z,16.70
2018-12-08T00:19:11.406Z,15.77
2018-12-08T00:21:42.127Z,18.67
2018-12-08T00:24:12.822Z,16.97
2018-12-08T00:26:43.659Z,16.67
2018-12-08T00:29:14.380Z,15.80
2018-12-08T00:31:47.765Z,15.77
2018-12-08T00:34:18.615Z,16.57
2018-12-08T00:36:50.252Z,17.57
2018-12-08T00:39:21.040Z,20.63
2018-12-08T00:41:51.854Z,19.43
2018-12-08T00:44:22.604Z,19.67
2018-12-08T00:46:54.433Z,17.20
2018-12-08T00:49:26.229Z,17.67
2018-12-08T00:51:57.103Z,17.37
2018-12-08T00:54:27.819Z,19.37
2018-12-08T00:56:59.651Z,20.37
2018-12-08T00:59:30.416Z,18.10
2018-12-08T01:02:01.180Z,18.50
2018-12-08T01:04:33.073Z,20.40
2018-12-08T01:07:05.860Z,16.77
2018-12-08T01:09:36.628Z,16.77
2018-12-08T01:12:07.569Z,19.73
2018-12-08T01:14:38.319Z,19.80
2018-12-08T01:17:09.466Z,20.00
2018-12-08T01:19:40.276Z,23.30
2018-12-08T01:22:11.022Z,19.70
2018-12-08T01:24:41.823Z,42.07
2018-12-08T01:27:12.573Z,29.37
2018-12-08T01:29:44.470Z,40.13
2018-12-08T01:32:15.431Z,37.90
2018-12-08T01:34:46.226Z,47.63
2018-12-08T01:37:17.002Z,44.30
2018-12-08T01:39:47.711Z,39.10
2018-12-08T01:42:18.477Z,37.03
2018-12-08T01:44:49.234Z,45.97
2018-12-08T01:47:20.008Z,65.23
2018-12-08T01:49:50.683Z,37.60
2018-12-08T01:52:22.362Z,39.57
2018-12-08T01:54:53.199Z,26.60
2018-12-08T01:57:23.896Z,59.23
2018-12-08T01:59:54.623Z,35.30
2018-12-08T02:02:25.464Z,45.83
2018-12-08T02:04:56.173Z,44.10
2018-12-08T02:07:26.932Z,44.50
2018-12-08T02:09:57.704Z,31.40
2018-12-08T02:12:28.880Z,29.43
2018-12-08T02:14:59.570Z,34.93
2018-12-08T02:17:30.351Z,36.20
2018-12-08T02:20:01.137Z,24.77
2018-12-08T02:22:31.903Z,28.90
2018-12-08T02:25:02.614Z,30.33
2018-12-08T02:27:33.303Z,25.93
2018-12-08T02:30:04.563Z,27.57
2018-12-08T02:32:36.659Z,26.87
2018-12-08T02:35:07.477Z,25.20
2018-12-08T02:37:38.195Z,24.13
2018-12-08T02:40:10.372Z,28.13
2018-12-08T02:42:41.074Z,26.53
2018-12-08T02:45:11.890Z,21.43
2018-12-08T02:47:42.695Z,27.93
2018-12-08T02:50:13.588Z,33.07
2018-12-08T02:52:45.310Z,26.97
2018-12-08T02:55:16.085Z,25.63
2018-12-08T02:57:46.829Z,30.80
2018-12-08T03:00:18.821Z,24.17
2018-12-08T03:02:49.552Z,18.23
2018-12-08T03:05:20.341Z,22.03
2018-12-08T03:07:51.107Z,23.03
2018-12-08T03:10:21.937Z,20.07
2018-12-08T03:12:53.460Z,29.77
2018-12-08T03:15:24.143Z,24.93
2018-12-08T03:17:54.925Z,17.83
2018-12-08T03:20:25.592Z,17.17
2018-12-08T03:22:57.225Z,20.03
2018-12-08T03:25:27.897Z,18.43
2018-12-08T03:27:58.665Z,18.60
2018-12-08T03:30:29.301Z,17.57
2018-12-08T03:33:00.702Z,17.60
2018-12-08T03:35:32.004Z,18.00
2018-12-08T03:38:02.740Z,18.00
2018-12-08T03:40:33.402Z,18.10
2018-12-08T03:43:04.160Z,17.23
2018-12-08T03:45:34.879Z,17.73
2018-12-08T03:48:05.680Z,15.03
2018-12-08T03:50:36.397Z,14.47
2018-12-08T03:53:07.410Z,15.03
2018-12-08T03:55:38.078Z,15.33
2018-12-08T03:58:08.956Z,14.57
2018-12-08T04:00:39.648Z,15.77
2018-12-08T04:03:10.410Z,17.83
2018-12-08T04:05:41.160Z,18.87
2018-12-08T04:08:12.037Z,17.30
2018-12-08T04:10:42.793Z,16.57
2018-12-08T04:13:13.678Z,16.77
2018-12-08T04:15:44.519Z,14.63
2018-12-08T04:18:15.132Z,16.20
2018-12-08T04:20:45.882Z,16.53
2018-12-08T04:23:16.531Z,15.60
2018-12-08T04:25:47.314Z,14.10
2018-12-08T04:28:18.047Z,14.17
2018-12-08T04:30:48.855Z,14.23
2018-12-08T04:33:19.720Z,14.13
2018-12-08T04:35:50.709Z,15.63
2018-12-08T04:38:21.406Z,16.33
2018-12-08T04:40:52.177Z,16.17
2018-12-08T04:43:22.907Z,13.83
2018-12-08T04:45:54.620Z,18.83
2018-12-08T04:48:25.334Z,13.60
2018-12-08T04:50:56.065Z,13.00
2018-12-08T04:53:27.121Z,14.13
2018-12-08T04:55:57.895Z,14.17
2018-12-08T04:58:28.691Z,13.97
2018-12-08T05:00:59.510Z,12.90
2018-12-08T05:03:30.361Z,12.20
2018-12-08T05:06:01.121Z,12.47
2018-12-08T05:08:32.046Z,13.23
2018-12-08T05:11:02.954Z,12.50
2018-12-08T05:13:35.024Z,18.93
2018-12-08T05:16:05.858Z,17.80
2018-12-08T05:18:37.033Z,15.40
2018-12-08T05:21:07.734Z,15.13
2018-12-08T05:23:38.465Z,13.17
2018-12-08T05:26:09.211Z,17.70
2018-12-08T05:28:40.038Z,16.07
2018-12-08T05:31:10.740Z,16.23
2018-12-08T05:33:41.668Z,15.73
2018-12-08T05:36:12.359Z,14.50
2018-12-08T05:38:43.171Z,12.60
2018-12-08T05:41:13.925Z,13.27
2018-12-08T05:43:44.598Z,13.17
2018-12-08T05:46:15.361Z,15.87
2018-12-08T05:48:46.086Z,17.53
2018-12-08T05:51:16.842Z,16.30
2018-12-08T05:53:47.704Z,18.93
2018-12-08T05:56:18.440Z,22.90
2018-12-08T05:58:49.203Z,12.73
2018-12-08T06:01:19.998Z,13.17
2018-12-08T06:03:50.744Z,12.20
2018-12-08T06:06:21.572Z,16.60
2018-12-08T06:08:52.242Z,21.13
2018-12-08T06:11:23.003Z,20.13
2018-12-08T06:13:53.868Z,35.63
2018-12-08T06:16:24.615Z,15.10
2018-12-08T06:18:55.320Z,14.03
2018-12-08T06:21:40.996Z,15.97
2018-12-08T06:24:11.790Z,16.17
2018-12-08T06:27:02.334Z,14.57
2018-12-08T06:29:33.109Z,13.97
2018-12-08T06:32:03.772Z,13.77
2018-12-08T06:34:34.879Z,13.53
2018-12-08T06:37:05.583Z,12.90
2018-12-08T06:39:36.253Z,17.40
2018-12-08T06:42:06.992Z,18.03
2018-12-08T06:44:37.794Z,16.37
2018-12-08T06:47:08.501Z,20.60
2018-12-08T06:49:39.285Z,15.27
2018-12-08T06:52:10.069Z,15.43
2018-12-08T06:54:40.900Z,18.90
2018-12-08T06:57:11.720Z,17.00
2018-12-08T06:59:42.431Z,15.87
2018-12-08T07:02:13.182Z,14.33
2018-12-08T07:04:43.954Z,12.67
2018-12-08T07:07:14.773Z,12.27
2018-12-08T07:09:45.564Z,10.33
2018-12-08T07:12:16.363Z,11.13
2018-12-08T07:14:47.325Z,12.57
2018-12-08T07:17:18.106Z,16.13
2018-12-08T07:19:48.892Z,15.97
2018-12-08T07:22:19.563Z,19.67
2018-12-08T07:24:50.360Z,12.10
2018-12-08T07:27:21.302Z,14.53
2018-12-08T07:29:52.258Z,19.57
2018-12-08T07:32:23.126Z,20.60
2018-12-08T07:34:56.992Z,21.70
2018-12-08T07:37:27.797Z,26.83
2018-12-08T07:39:59.111Z,28.87
2018-12-08T07:42:30.211Z,31.13
2018-12-08T07:45:01.057Z,20.37
2018-12-08T07:47:31.868Z,19.20
2018-12-08T07:50:02.644Z,20.23
2018-12-08T07:52:33.924Z,39.47
2018-12-08T07:55:05.440Z,34.77
2018-12-08T07:57:36.166Z,32.93
2018-12-08T08:00:10.898Z,19.73
2018-12-08T08:02:42.990Z,15.43
2018-12-08T08:05:13.774Z,13.30
2018-12-08T08:07:44.557Z,14.30
2018-12-08T08:10:15.327Z,12.80
2018-12-08T08:12:46.144Z,15.27
2018-12-08T08:15:17.221Z,20.10
2018-12-08T08:17:47.934Z,22.57
2018-12-08T08:20:18.852Z,34.30
2018-12-08T08:22:49.674Z,27.63
2018-12-08T08:25:20.519Z,27.40
2018-12-08T08:27:51.285Z,23.77
2018-12-08T08:30:22.479Z,22.90
2018-12-08T08:32:53.306Z,26.70
2018-12-08T08:35:24.700Z,20.43
2018-12-08T08:37:55.517Z,16.43
2018-12-08T08:40:26.362Z,17.27
2018-12-08T08:42:57.092Z,14.00
2018-12-08T08:45:27.844Z,14.63
2018-12-08T08:47:58.617Z,14.63
2018-12-08T08:50:29.523Z,19.97
2018-12-08T08:53:02.413Z,24.77
2018-12-08T08:55:33.323Z,25.03
2018-12-08T08:58:04.128Z,21.13
2018-12-08T09:00:34.917Z,25.23
2018-12-08T09:03:05.717Z,20.37
2018-12-08T09:05:36.502Z,16.87
2018-12-08T09:08:07.252Z,23.17
2018-12-08T09:10:38.018Z,19.47
2018-12-08T09:13:08.771Z,21.20
2018-12-08T09:15:45.115Z,18.50
2018-12-08T09:18:16.753Z,12.50
2018-12-08T09:20:47.564Z,16.27
2018-12-08T09:23:18.436Z,18.53
2018-12-08T09:25:49.228Z,24.03
2018-12-08T09:28:20.177Z,13.50
2018-12-08T09:30:51.057Z,25.07
2018-12-08T09:33:21.857Z,25.63
2018-12-08T09:35:52.848Z,20.97
2018-12-08T09:38:23.652Z,26.17
2018-12-08T09:40:54.491Z,17.57
2018-12-08T09:43:25.250Z,12.87
2018-12-08T09:45:56.129Z,16.07
2018-12-08T09:48:26.864Z,17.40
2018-12-08T09:50:57.668Z,17.07
2018-12-08T09:53:28.478Z,19.20
2018-12-08T09:55:59.532Z,16.83
2018-12-08T09:58:30.322Z,17.50
2018-12-08T10:01:01.619Z,13.80
2018-12-08T10:03:32.393Z,14.83
2018-12-08T10:06:03.193Z,13.43
2018-12-08T10:08:33.939Z,14.90
2018-12-08T10:11:04.747Z,10.60
2018-12-08T10:13:35.550Z,13.33
2018-12-08T10:16:06.452Z,11.90
2018-12-08T10:18:37.246Z,13.37
2018-12-08T10:21:07.970Z,13.13
2018-12-08T10:23:38.774Z,15.20
2018-12-08T10:26:09.542Z,16.80
2018-12-08T10:28:40.367Z,16.93
2018-12-08T10:31:11.124Z,14.77
2018-12-08T10:33:41.885Z,12.67
2018-12-08T10:36:13.019Z,14.27
2018-12-08T10:38:43.836Z,13.03
2018-12-08T10:41:14.811Z,13.97
2018-12-08T10:43:45.611Z,14.20
2018-12-08T10:46:16.383Z,13.80
2018-12-08T10:48:47.204Z,13.63
2018-12-08T10:51:18.033Z,14.10
2018-12-08T10:53:50.958Z,14.73
2018-12-08T10:56:22.100Z,11.87
2018-12-08T10:58:52.832Z,12.43
2018-12-08T11:01:29.844Z,12.53
2018-12-08T11:04:00.625Z,12.47
2018-12-08T11:06:31.420Z,12.90
2018-12-08T11:09:03.383Z,12.37
2018-12-08T11:11:35.620Z,13.03
2018-12-08T11:14:06.375Z,13.27
2018-12-08T11:16:37.237Z,13.77
2018-12-08T11:19:08.093Z,16.20
2018-12-08T11:21:40.282Z,17.50
2018-12-08T11:24:11.000Z,12.07
2018-12-08T11:26:41.793Z,13.50
2018-12-08T11:29:12.560Z,18.23
2018-12-08T11:31:43.372Z,13.80
2018-12-08T11:34:14.024Z,16.20
2018-12-08T11:36:49.487Z,14.53
2018-12-08T11:39:17.563Z,15.70
2018-12-08T11:41:48.688Z,14.10
2018-12-08T11:44:19.734Z,12.47
2018-12-08T11:46:50.709Z,16.03
2018-12-08T11:49:21.531Z,15.70
2018-12-08T11:51:52.305Z,14.30
2018-12-08T11:54:23.202Z,16.53
2018-12-08T11:56:54.315Z,20.63
2018-12-08T11:59:25.124Z,19.60
2018-12-08T12:01:55.905Z,13.00
2018-12-08T12:04:27.231Z,18.60
2018-12-08T12:06:58.831Z,19.30
2018-12-08T12:09:29.583Z,16.73
2018-12-08T12:12:00.351Z,21.50
2018-12-08T12:14:50.616Z,17.47
2018-12-08T12:17:21.550Z,12.97
2018-12-08T12:19:52.240Z,16.27
2018-12-08T12:22:23.034Z,24.33
2018-12-08T12:24:53.786Z,26.23
2018-12-08T12:27:24.861Z,21.00
2018-12-08T12:29:55.666Z,23.50
2018-12-08T12:32:26.480Z,29.77
2018-12-08T12:34:57.192Z,24.90
2018-12-08T12:37:28.272Z,21.13
2018-12-08T12:39:59.074Z,25.23
2018-12-08T12:42:29.904Z,14.63
2018-12-08T12:45:00.685Z,13.00
2018-12-08T12:47:32.038Z,15.27
2018-12-08T12:50:02.814Z,14.43
2018-12-08T12:52:33.625Z,15.67
2018-12-08T12:55:04.357Z,13.67
2018-12-08T12:57:35.439Z,18.30
2018-12-08T13:00:08.014Z,15.83
2018-12-08T13:02:38.822Z,15.03
2018-12-08T13:05:09.679Z,19.63
2018-12-08T13:07:41.391Z,22.70
2018-12-08T13:10:12.362Z,23.77
2018-12-08T13:12:43.208Z,22.37
2018-12-08T13:15:14.013Z,19.13
2018-12-08T13:17:44.853Z,20.30
2018-12-08T13:20:15.522Z,20.07
2018-12-08T13:22:46.251Z,21.63
2018-12-08T13:25:25.872Z,19.70
2018-12-08T13:27:56.609Z,29.77
2018-12-08T13:30:27.308Z,25.13
2018-12-08T13:32:59.481Z,25.10
2018-12-08T13:35:55.889Z,20.80
2018-12-08T13:38:26.993Z,19.03
2018-12-08T13:41:04.570Z,21.10
2018-12-08T13:43:35.375Z,23.70
2018-12-08T13:46:06.132Z,38.57
2018-12-08T13:48:37.084Z,38.20
2018-12-08T13:51:08.135Z,33.40
2018-12-08T13:53:38.940Z,33.30
2018-12-08T13:56:09.750Z,31.93
2018-12-08T13:58:40.770Z,36.70
2018-12-08T14:01:11.479Z,31.70
2018-12-08T14:03:42.231Z,27.63
2018-12-08T14:06:12.861Z,37.30
2018-12-08T14:08:43.788Z,54.33
2018-12-08T14:11:14.529Z,43.70
2018-12-08T14:13:45.384Z,39.30
2018-12-08T14:16:16.193Z,38.10
2018-12-08T14:18:47.221Z,30.37
2018-12-08T14:21:17.994Z,38.20
2018-12-08T14:23:48.812Z,25.97
2018-12-08T14:26:19.540Z,27.03
2018-12-08T14:28:50.347Z,27.30
2018-12-08T14:31:21.361Z,30.43
2018-12-08T14:33:52.350Z,34.90
2018-12-08T14:36:23.183Z,37.33
2018-12-08T14:38:57.908Z,35.43
2018-12-08T14:41:28.947Z,29.10
2018-12-08T14:43:59.708Z,29.63
2018-12-08T14:46:30.681Z,32.20
2018-12-08T14:49:02.680Z,41.73
2018-12-08T14:51:33.422Z,54.17
2018-12-08T14:54:04.462Z,48.97
2018-12-08T14:56:35.802Z,38.83
2018-12-08T14:59:07.486Z,48.83
2018-12-08T15:01:38.513Z,44.13
2018-12-08T15:04:09.309Z,50.73
2018-12-08T15:06:40.261Z,35.97
2018-12-08T15:09:11.168Z,28.83
2018-12-08T15:11:42.010Z,25.70
2018-12-08T15:14:12.871Z,28.53
2018-12-08T15:16:44.530Z,30.57
2018-12-08T15:19:15.712Z,27.87
2018-12-08T15:21:46.485Z,29.67
2018-12-08T15:24:17.290Z,26.90
2018-12-08T15:26:48.160Z,27.87
2018-12-08T15:29:18.904Z,28.90
2018-12-08T15:31:49.706Z,29.53
2018-12-08T15:34:20.463Z,28.43
2018-12-08T15:36:51.301Z,22.90
2018-12-08T15:39:22.395Z,23.00
2018-12-08T15:41:53.213Z,22.83
2018-12-08T15:44:24.025Z,27.27
2018-12-08T15:46:55.232Z,29.87
2018-12-08T15:49:26.703Z,31.13
2018-12-08T15:51:59.150Z,30.43
2018-12-08T15:54:29.949Z,28.40
2018-12-08T15:57:00.807Z,28.77
2018-12-08T15:59:32.287Z,27.77
2018-12-08T16:02:03.051Z,25.97
2018-12-08T16:04:33.847Z,34.63
2018-12-08T16:07:04.748Z,25.77
2018-12-08T16:09:35.545Z,24.60
2018-12-08T16:12:06.365Z,24.67
2018-12-08T16:14:37.139Z,26.10
2018-12-08T16:17:08.079Z,23.73
2018-12-08T16:19:39.513Z,21.97
2018-12-08T16:22:10.344Z,24.10
2018-12-08T16:24:41.205Z,34.43
2018-12-08T16:27:12.534Z,29.60
2018-12-08T16:29:43.442Z,35.03
2018-12-08T16:32:14.227Z,33.47
2018-12-08T16:34:44.964Z,30.43
2018-12-08T16:37:15.931Z,34.33
2018-12-08T16:39:48.229Z,32.67
2018-12-08T16:42:19.087Z,31.07
2018-12-08T16:44:49.840Z,31.97
2018-12-08T16:47:20.699Z,26.67
2018-12-08T16:49:51.510Z,27.47
2018-12-08T16:52:22.377Z,25.83
2018-12-08T16:54:53.273Z,25.17
2018-12-08T16:57:24.072Z,24.10
2018-12-08T16:59:54.920Z,24.83
2018-12-08T17:02:25.616Z,23.80
2018-12-08T17:04:57.925Z,19.90
2018-12-08T17:07:28.675Z,21.57
2018-12-08T17:09:59.516Z,21.03
2018-12-08T17:12:30.303Z,20.43
2018-12-08T17:15:01.174Z,20.13
2018-12-08T17:17:31.978Z,18.43
2018-12-08T17:20:02.944Z,19.10
2018-12-08T17:22:33.724Z,19.90
2018-12-08T17:25:04.638Z,19.43
2018-12-08T17:27:35.512Z,24.87
2018-12-08T17:30:06.750Z,19.47
2018-12-08T17:32:37.626Z,17.97
2018-12-08T17:35:09.024Z,19.07
2018-12-08T17:37:39.937Z,20.90
2018-12-08T17:40:11.095Z,18.43
2018-12-08T17:42:41.872Z,19.53
2018-12-08T17:45:12.713Z,19.50
2018-12-08T17:47:44.497Z,32.13
2018-12-08T17:50:15.421Z,27.37
2018-12-08T17:52:46.176Z,18.80
2018-12-08T17:55:17.000Z,19.77
2018-12-08T17:57:47.791Z,20.70
2018-12-08T18:00:18.898Z,21.60
2018-12-08T18:02:49.777Z,19.07
2018-12-08T18:05:21.999Z,20.37
2018-12-08T18:07:52.843Z,18.70
2018-12-08T18:10:23.654Z,19.70
2018-12-08T18:12:54.383Z,21.13
2018-12-08T18:15:25.332Z,19.43
2018-12-08T18:17:56.235Z,24.80
2018-12-08T18:20:28.783Z,31.77
2018-12-08T18:22:59.573Z,28.23
2018-12-08T18:25:31.519Z,23.40
2018-12-08T18:28:02.422Z,25.70
2018-12-08T18:30:33.157Z,26.00
2018-12-08T18:33:03.948Z,24.53
2018-12-08T18:35:34.686Z,28.53
2018-12-08T18:38:05.492Z,20.90
2018-12-08T18:40:36.274Z,23.87
2018-12-08T18:43:06.934Z,19.77
2018-12-08T18:45:37.723Z,20.23
2018-12-08T18:48:08.487Z,19.30
2018-12-08T18:50:39.301Z,24.03
2018-12-08T18:53:10.098Z,23.43
2018-12-08T18:55:40.771Z,23.47
2018-12-08T18:58:11.685Z,24.03
2018-12-08T19:00:42.656Z,20.07
2018-12-08T19:03:13.526Z,18.87
2018-12-08T19:05:44.374Z,22.83
2018-12-08T19:08:15.233Z,27.43
2018-12-08T19:10:45.927Z,28.13
2018-12-08T19:13:16.673Z,28.20
2018-12-08T19:15:48.283Z,25.83
2018-12-08T19:18:19.058Z,31.57
2018-12-08T19:20:50.007Z,30.70
2018-12-08T19:23:20.821Z,22.03
2018-12-08T19:25:51.760Z,18.30
2018-12-08T19:28:22.502Z,17.10
2018-12-08T19:30:53.291Z,18.90
2018-12-08T19:33:24.064Z,18.57
2018-12-08T19:35:54.853Z,15.53
2018-12-08T19:38:26.905Z,18.23
2018-12-08T19:40:57.916Z,17.03
2018-12-08T19:43:29.590Z,19.30
2018-12-08T19:46:00.286Z,16.90
2018-12-08T19:48:31.086Z,17.97
2018-12-08T19:51:01.839Z,19.40
2018-12-08T19:53:32.741Z,16.43
2018-12-08T19:56:03.575Z,19.17
2018-12-08T19:58:34.364Z,22.10
2018-12-08T20:01:05.228Z,15.53
2018-12-08T20:03:36.081Z,16.40
2018-12-08T20:06:06.895Z,16.13
2018-12-08T20:08:37.657Z,16.03
2018-12-08T20:11:08.494Z,15.87
2018-12-08T20:13:39.331Z,17.73
2018-12-08T20:16:10.116Z,15.37
2018-12-08T20:18:40.940Z,20.57
2018-12-08T20:21:11.797Z,15.87
2018-12-08T20:23:42.546Z,15.77
2018-12-08T20:26:13.243Z,14.77
2018-12-08T20:28:49.329Z,16.73
2018-12-08T20:31:24.000Z,17.53
2018-12-08T20:36:46.233Z,15.40
2018-12-08T20:39:16.982Z,14.20
2018-12-08T20:41:47.648Z,14.00
2018-12-08T20:44:18.414Z,14.67
2018-12-08T20:46:49.247Z,13.93
2018-12-08T20:49:20.949Z,15.50
2018-12-08T20:51:52.781Z,15.97
2018-12-08T20:54:24.296Z,15.87
2018-12-08T20:56:55.003Z,16.50
2018-12-08T20:59:25.758Z,16.27
2018-12-08T21:01:56.549Z,17.30
2018-12-08T21:04:27.334Z,18.90
2018-12-08T21:06:58.134Z,18.90
2018-12-08T21:09:28.884Z,21.47
2018-12-08T21:11:59.667Z,24.30
2018-12-08T21:14:30.705Z,26.17
2018-12-08T21:17:01.393Z,21.30
2018-12-08T21:19:32.186Z,21.47
2018-12-08T21:22:02.983Z,20.33
2018-12-08T21:24:33.721Z,21.90
2018-12-08T21:27:06.128Z,24.40
2018-12-08T21:29:37.265Z,24.13
2018-12-08T21:32:08.093Z,21.17
2018-12-08T21:34:38.897Z,21.73
2018-12-08T21:37:09.725Z,22.07
2018-12-08T21:39:40.565Z,20.20
2018-12-08T21:42:11.340Z,18.67
2018-12-08T21:44:42.081Z,19.10
2018-12-08T21:47:12.904Z,18.53
2018-12-08T21:49:43.717Z,18.30
2018-12-08T21:52:14.425Z,17.40
2018-12-08T21:54:45.087Z,17.17
2018-12-08T21:57:15.890Z,16.47
2018-12-08T21:59:46.444Z,20.20
2018-12-08T22:02:18.232Z,19.17
2018-12-08T22:04:49.048Z,19.97
2018-12-08T22:07:19.885Z,19.90
2018-12-08T22:09:50.704Z,20.80
2018-12-08T22:12:21.572Z,23.33
2018-12-08T22:14:57.400Z,22.07
2018-12-08T22:17:28.621Z,21.43
2018-12-08T22:19:59.406Z,20.00
2018-12-08T22:22:31.031Z,19.13
2018-12-08T22:25:01.833Z,18.33
2018-12-08T22:27:32.583Z,18.80
2018-12-08T22:30:03.304Z,20.20
2018-12-08T22:32:34.059Z,19.37
2018-12-08T22:35:05.045Z,20.80
2018-12-08T22:37:35.829Z,19.07
2018-12-08T22:40:07.592Z,20.50
2018-12-08T22:42:38.296Z,19.20
2018-12-08T22:45:10.121Z,18.90
2018-12-08T22:47:40.944Z,15.70
2018-12-08T22:50:11.778Z,17.23
2018-12-08T22:52:42.576Z,19.50
2018-12-08T22:55:13.532Z,19.57
2018-12-08T22:57:44.390Z,21.17
2018-12-08T23:00:27.275Z,19.73
2018-12-08T23:03:00.097Z,21.93
2018-12-08T23:05:30.838Z,19.60
2018-12-08T23:08:01.694Z,19.60
2018-12-08T23:10:32.516Z,25.30
2018-12-08T23:13:03.311Z,20.13
2018-12-08T23:15:35.596Z,19.43
2018-12-08T23:18:06.474Z,18.77
2018-12-08T23:20:37.263Z,19.57
2018-12-08T23:23:08.056Z,21.67
2018-12-08T23:25:38.842Z,22.30
2018-12-08T23:28:09.705Z,20.40
2018-12-08T23:30:40.534Z,20.40
2018-12-08T23:33:11.396Z,19.47
2018-12-08T23:35:42.301Z,24.33
2018-12-08T23:38:13.054Z,19.27
2018-12-08T23:40:43.819Z,17.73
2018-12-08T23:43:14.733Z,17.83
2018-12-08T23:45:45.475Z,19.47
2018-12-08T23:48:16.260Z,18.20
2018-12-08T23:50:46.949Z,19.57
2018-12-08T23:53:17.645Z,21.63
2018-12-08T23:55:48.670Z,18.93
2018-12-08T23:58:19.393Z,17.53
